Time;durP1;ratioP1;P1;durP2;ratioP2;P2;SDS_P1;SDS_P2;PMS_P1;PMS_P2;Temp;Humidity;BMP_temperature;BMP_pressure;BME280_temperature;BME280_humidity;BME280_pressure;Samples;Min_cycle;Max_cycle;Signal;HPM_P1;HPM_P2
2022/12/15 00:39:58;;;;;;;18.63;10.07;;;-3.90;99.90;;;;;;4983238;28;20053;-64
2022/12/15 00:42:25;;;;;;;25.08;13.90;;;-4.00;99.90;;;;;;4984622;28;20269;-64
2022/12/15 00:44:51;;;;;;;27.52;15.55;;;-3.60;99.90;;;;;;4984513;28;20104;-64
2022/12/15 00:47:16;;;;;;;26.25;16.77;;;-3.80;99.90;;;;;;4982355;28;20343;-63
2022/12/15 01:20:17;;;;;;;22.75;14.02;;;-1.60;99.90;;;;;;4964477;28;20061;-64
2022/12/15 01:22:51;;;;;;;26.23;15.45;;;-3.50;99.90;;;;;;4963736;28;20047;-64
2022/12/15 01:25:19;;;;;;;29.25;16.15;;;-3.50;99.90;;;;;;4962889;28;20153;-63
2022/12/15 01:27:45;;;;;;;17.70;10.43;;;-2.50;99.90;;;;;;4964299;28;20623;-63
2022/12/15 01:30:13;;;;;;;26.83;14.80;;;-2.10;99.90;;;;;;4964524;28;20086;-64
2022/12/15 01:32:39;;;;;;;24.75;12.80;;;-3.40;99.90;;;;;;4963445;28;20489;-64
2022/12/15 01:35:06;;;;;;;24.42;13.85;;;-2.60;99.90;;;;;;4964247;28;20053;-65
2022/12/15 01:37:32;;;;;;;23.58;14.05;;;-3.30;99.90;;;;;;4962392;28;20066;-64
2022/12/15 01:42:42;;;;;;;29.48;17.10;;;-3.40;99.90;;;;;;4962676;28;20584;-64
2022/12/15 01:45:23;;;;;;;26.20;14.10;;;-3.40;99.90;;;;;;4964221;28;20226;-64
2022/12/15 01:48:11;;;;;;;24.00;14.30;;;-2.50;99.90;;;;;;4963744;28;20050;-64
2022/12/15 01:50:45;;;;;;;24.38;14.15;;;-1.90;99.90;;;;;;4963515;28;20087;-64
2022/12/15 01:53:13;;;;;;;24.10;12.35;;;-3.20;99.90;;;;;;4962632;28;20072;-64
2022/12/15 01:55:43;;;;;;;26.25;14.95;;;-3.10;99.90;;;;;;4964119;28;20077;-65
2022/12/15 01:58:11;;;;;;;29.40;16.63;;;-2.90;99.90;;;;;;4962945;28;20043;-64
2022/12/15 02:00:37;;;;;;;25.90;13.90;;;-3.00;99.90;;;;;;4962671;28;20133;-64
2022/12/15 02:03:05;;;;;;;26.02;14.38;;;-3.10;99.90;;;;;;4964179;28;20181;-63
2022/12/15 02:05:32;;;;;;;24.25;12.68;;;-3.00;99.90;;;;;;4974836;28;20049;-64
2022/12/15 02:08:00;;;;;;;21.60;12.07;;;-3.10;99.90;;;;;;4962971;28;20068;-65
2022/12/15 02:10:33;;;;;;;25.85;13.95;;;-1.60;99.90;;;;;;4964080;28;20054;-64
2022/12/15 02:13:17;;;;;;;24.33;13.25;;;-2.30;99.90;;;;;;4963681;28;20489;-64
2022/12/15 02:15:59;;;;;;;21.05;10.98;;;-3.20;99.90;;;;;;4962600;28;20458;-64
2022/12/15 02:18:36;;;;;;;28.73;16.48;;;-3.00;99.90;;;;;;4963425;28;20097;-64
2022/12/15 02:21:29;;;;;;;30.15;17.20;;;-3.20;99.90;;;;;;5031684;23;20500;-64
2022/12/15 02:24:18;;;;;;;23.50;13.07;;;-3.20;99.90;;;;;;4945629;28;20038;-64
2022/12/15 02:26:55;;;;;;;24.10;14.60;;;-3.00;99.90;;;;;;4963097;28;20057;-63
2022/12/15 02:29:58;;;;;;;26.73;15.35;;;-3.20;99.90;;;;;;4962363;28;20046;-63
2022/12/15 02:32:32;;;;;;;20.80;12.60;;;-3.20;99.90;;;;;;4962627;28;20729;-63
2022/12/15 02:35:05;;;;;;;21.93;12.07;;;-2.20;99.90;;;;;;4964125;28;20093;-63
2022/12/15 02:37:34;;;;;;;20.70;11.88;;;-3.10;99.90;;;;;;4964126;28;20317;-63
2022/12/15 02:40:00;;;;;;;21.83;14.20;;;-3.00;99.90;;;;;;4963838;28;20409;-63
2022/12/15 02:42:28;;;;;;;23.52;13.18;;;-3.00;99.90;;;;;;4963179;28;20051;-63
2022/12/15 02:45:05;;;;;;;20.20;11.38;;;-2.90;99.90;;;;;;4961755;28;20121;-63
2022/12/15 02:47:38;;;;;;;20.90;10.88;;;-3.20;99.90;;;;;;4961512;28;20071;-63
2022/12/15 02:50:22;;;;;;;24.45;15.07;;;-3.10;99.90;;;;;;4963550;28;20047;-63
2022/12/15 02:52:58;;;;;;;24.42;16.40;;;-3.10;99.90;;;;;;4963152;28;20125;-64
2022/12/15 02:55:54;;;;;;;21.67;13.40;;;-3.30;99.90;;;;;;4963552;28;20035;-64
2022/12/15 02:58:44;;;;;;;29.35;16.80;;;-3.10;99.90;;;;;;4962922;28;20441;-63
2022/12/15 03:01:38;;;;;;;23.05;13.38;;;-3.10;99.90;;;;;;4962916;28;20070;-63
2022/12/15 03:04:07;;;;;;;24.13;14.02;;;-3.30;99.90;;;;;;4965690;28;20440;-63
2022/12/15 03:06:33;;;;;;;27.92;15.80;;;-3.30;99.90;;;;;;4971911;28;20039;-64
2022/12/15 03:08:59;;;;;;;22.50;15.60;;;-3.40;99.90;;;;;;4963343;28;20097;-63
2022/12/15 03:11:25;;;;;;;27.80;16.88;;;-3.10;99.90;;;;;;4962178;28;20060;-64
2022/12/15 03:13:52;;;;;;;25.67;14.60;;;-3.20;99.90;;;;;;4963011;28;20046;-63
2022/12/15 03:16:18;;;;;;;22.00;14.07;;;-3.10;99.90;;;;;;4962359;28;20054;-63
2022/12/15 03:18:44;;;;;;;22.92;11.43;;;-2.10;99.90;;;;;;4962400;28;20043;-64
2022/12/15 03:21:09;;;;;;;17.83;10.82;;;-3.10;99.90;;;;;;4961258;28;20051;-63
2022/12/15 03:23:35;;;;;;;22.92;13.38;;;-3.80;99.90;;;;;;4961637;28;20486;-64
2022/12/15 03:26:01;;;;;;;21.98;13.65;;;-3.20;99.90;;;;;;4963118;28;20077;-63
2022/12/15 03:28:27;;;;;;;28.60;15.15;;;-3.40;99.90;;;;;;4961497;28;20058;-63
2022/12/15 03:30:53;;;;;;;28.35;16.70;;;-4.10;99.90;;;;;;4960100;28;20050;-64
2022/12/15 03:33:18;;;;;;;26.80;15.88;;;-2.30;99.90;;;;;;4962936;28;20039;-64
2022/12/15 03:35:44;;;;;;;28.10;17.23;;;-3.50;99.90;;;;;;4960632;28;20126;-64
2022/12/15 03:38:10;;;;;;;24.10;14.77;;;-3.40;99.90;;;;;;4962106;28;20528;-63
2022/12/15 03:40:35;;;;;;;28.15;16.88;;;-2.90;99.90;;;;;;4966119;28;20074;-64
2022/12/15 03:43:01;;;;;;;28.25;16.58;;;-3.10;99.90;;;;;;4966464;28;20050;-64
2022/12/15 03:45:27;;;;;;;23.25;14.55;;;-3.20;99.90;;;;;;4965345;28;20046;-64
2022/12/15 03:47:55;;;;;;;29.05;17.17;;;-3.40;99.90;;;;;;4965691;28;20038;-63
2022/12/15 03:50:24;;;;;;;27.58;16.88;;;-3.30;99.90;;;;;;4966389;28;20053;-64
2022/12/15 03:53:00;;;;;;;26.83;16.85;;;-3.20;99.90;;;;;;4964466;28;20047;-65
2022/12/15 03:55:30;;;;;;;27.40;16.83;;;-1.90;99.90;;;;;;4966073;28;20139;-63
2022/12/15 03:57:56;;;;;;;24.38;14.00;;;-3.10;99.90;;;;;;4965815;28;20051;-64
2022/12/15 04:00:23;;;;;;;24.50;15.32;;;-3.10;99.90;;;;;;4963884;28;20097;-64
2022/12/15 04:02:50;;;;;;;23.73;15.93;;;-3.70;99.90;;;;;;4965006;28;20039;-63
2022/12/15 04:05:27;;;;;;;21.95;14.80;;;-3.20;99.90;;;;;;4975514;28;20121;-65
2022/12/15 04:07:55;;;;;;;18.08;10.95;;;-3.40;99.90;;;;;;4965901;28;20045;-65
2022/12/15 04:10:22;;;;;;;21.70;13.43;;;-0.80;99.90;;;;;;4963578;28;20038;-63
2022/12/15 04:12:55;;;;;;;22.88;12.68;;;-3.10;99.90;;;;;;4965729;28;20088;-65
2022/12/15 04:15:20;;;;;;;20.52;11.90;;;-3.40;99.90;;;;;;4965217;28;20175;-62
2022/12/15 04:17:46;;;;;;;17.48;10.07;;;-2.00;99.90;;;;;;4963383;28;20726;-64
2022/12/15 04:20:12;;;;;;;20.60;12.45;;;-3.10;99.90;;;;;;4965756;28;20731;-63
2022/12/15 04:22:40;;;;;;;21.05;12.68;;;-3.20;99.90;;;;;;4965775;28;20097;-64
2022/12/15 05:33:54;;;;;;;19.58;11.90;;;-3.30;99.90;;;;;;4964147;28;20057;-64
2022/12/15 05:36:20;;;;;;;18.33;11.35;;;-1.20;99.90;;;;;;4963288;28;20086;-64
2022/12/15 05:38:51;;;;;;;22.05;13.55;;;-1.80;99.90;;;;;;4963759;28;20043;-65
2022/12/15 05:41:18;;;;;;;21.05;12.57;;;-3.40;99.90;;;;;;4963205;28;20031;-64
2022/12/15 05:43:44;;;;;;;20.58;12.35;;;-3.10;99.90;;;;;;4962210;28;20217;-64
2022/12/15 05:46:10;;;;;;;19.45;11.18;;;-2.50;99.90;;;;;;4961745;28;20050;-64
2022/12/15 05:48:36;;;;;;;22.73;14.38;;;-3.10;99.90;;;;;;4963592;28;20046;-64
2022/12/15 05:51:07;;;;;;;22.13;12.77;;;-3.00;99.90;;;;;;4963618;28;20061;-64
2022/12/15 05:53:34;;;;;;;17.95;11.55;;;-3.00;99.90;;;;;;4963433;28;20790;-63
2022/12/15 05:56:04;;;;;;;25.70;13.52;;;-1.80;99.90;;;;;;4964409;28;20780;-64
2022/12/15 05:58:30;;;;;;;17.23;9.75;;;-2.30;99.90;;;;;;4964184;28;20089;-63
2022/12/15 06:01:06;;;;;;;19.02;9.68;;;-3.20;99.90;;;;;;4962197;28;20502;-63
2022/12/15 06:03:31;;;;;;;16.98;10.95;;;-3.20;99.90;;;;;;4964730;28;20035;-65
2022/12/15 06:05:59;;;;;;;20.70;12.98;;;-2.50;99.90;;;;;;4974296;28;20097;-64
2022/12/15 06:08:28;;;;;;;22.45;13.07;;;-3.10;99.90;;;;;;4961349;28;20445;-65
2022/12/15 06:10:54;;;;;;;19.65;12.45;;;-3.20;99.90;;;;;;4963533;28;20603;-64
2022/12/15 06:13:24;;;;;;;21.52;12.70;;;-2.40;99.90;;;;;;4962526;28;20050;-63
2022/12/15 06:15:59;;;;;;;18.80;11.73;;;-2.90;99.90;;;;;;4962053;28;20121;-63
2022/12/15 06:18:28;;;;;;;21.05;12.77;;;-3.00;99.90;;;;;;4962178;28;20054;-64
2022/12/15 06:21:09;;;;;;;22.00;12.63;;;-2.90;99.90;;;;;;4963504;28;20390;-64
2022/12/15 06:23:35;;;;;;;18.55;11.27;;;-2.90;99.90;;;;;;4962442;28;20082;-63
2022/12/15 06:26:11;;;;;;;19.42;12.35;;;-0.80;99.90;;;;;;4963546;28;20079;-64
2022/12/15 06:28:37;;;;;;;21.17;12.27;;;-3.20;99.90;;;;;;4963518;28;20053;-64
2022/12/15 06:31:04;;;;;;;16.25;10.38;;;-2.20;99.90;;;;;;4960898;28;20351;-64
2022/12/15 06:33:30;;;;;;;22.50;11.00;;;-2.90;99.90;;;;;;4964130;28;20057;-64
2022/12/15 06:36:00;;;;;;;14.77;9.70;;;-0.80;99.90;;;;;;4963779;28;20050;-65
2022/12/15 06:38:28;;;;;;;19.27;10.80;;;-3.10;99.90;;;;;;4962747;28;20595;-63
2022/12/15 06:40:55;;;;;;;21.83;8.43;;;-3.10;99.90;;;;;;4963576;28;20070;-64
2022/12/15 06:43:20;;;;;;;18.50;10.27;;;-2.70;99.90;;;;;;4964085;28;20097;-64
2022/12/15 06:45:50;;;;;;;14.65;9.60;;;-1.00;99.90;;;;;;4962630;28;20482;-64
2022/12/15 06:48:19;;;;;;;15.95;10.30;;;-2.60;99.90;;;;;;4962726;28;20047;-64
2022/12/15 06:50:45;;;;;;;17.30;8.95;;;-2.90;99.90;;;;;;4962950;28;20283;-63
2022/12/15 06:53:18;;;;;;;14.93;7.35;;;-1.60;99.90;;;;;;4962142;28;20054;-65
2022/12/15 06:55:44;;;;;;;14.85;9.25;;;-2.80;99.90;;;;;;4962718;28;20474;-64
2022/12/15 06:58:11;;;;;;;16.52;8.75;;;-1.60;99.90;;;;;;4961951;28;20066;-64
2022/12/15 07:00:38;;;;;;;17.33;9.70;;;-2.80;99.90;;;;;;4962331;28;20433;-65
2022/12/15 07:03:13;;;;;;;14.43;8.68;;;-2.60;99.90;;;;;;4962755;28;20043;-64
2022/12/15 07:05:38;;;;;;;15.02;9.35;;;-2.00;99.90;;;;;;4973997;28;20472;-65
2022/12/15 07:08:04;;;;;;;17.15;9.75;;;-2.00;99.90;;;;;;4962799;28;20276;-65
2022/12/15 07:10:30;;;;;;;15.77;9.00;;;-2.80;99.90;;;;;;4961984;28;20490;-64
2022/12/15 07:12:56;;;;;;;13.85;6.85;;;-2.50;99.90;;;;;;4961843;28;20046;-64
2022/12/15 07:15:22;;;;;;;16.10;8.93;;;-2.70;99.90;;;;;;4964364;28;20051;-64
2022/12/15 07:17:48;;;;;;;16.92;9.07;;;-2.40;99.90;;;;;;4966920;28;20186;-64
2022/12/15 07:20:14;;;;;;;13.77;8.68;;;-2.60;99.90;;;;;;4966604;28;20092;-66
2022/12/15 07:22:39;;;;;;;12.95;7.20;;;-2.10;99.90;;;;;;4966049;28;20267;-65
2022/12/15 07:25:06;;;;;;;15.25;7.85;;;-2.50;99.90;;;;;;4985221;28;20097;-65
2022/12/15 07:27:31;;;;;;;12.23;7.30;;;-2.50;99.90;;;;;;4986306;28;20042;-65
2022/12/15 07:29:57;;;;;;;16.35;7.82;;;-2.60;99.90;;;;;;4985082;28;20497;-64
2022/12/15 07:32:23;;;;;;;10.45;6.05;;;-1.70;99.90;;;;;;4985731;28;20522;-64
2022/12/15 07:34:48;;;;;;;14.13;7.38;;;-0.90;99.90;;;;;;4986596;28;20121;-64
2022/12/15 07:37:15;;;;;;;16.27;8.98;;;-2.20;99.90;;;;;;4985718;28;20054;-65
2022/12/15 07:39:40;;;;;;;13.88;7.45;;;-1.40;99.90;;;;;;4984983;28;20133;-64
2022/12/15 07:42:06;;;;;;;12.55;8.25;;;-1.70;99.90;;;;;;4985594;28;20173;-64
2022/12/15 07:44:32;;;;;;;11.20;7.30;;;-2.50;99.90;;;;;;4984786;28;20117;-66
2022/12/15 07:46:58;;;;;;;14.90;7.07;;;-2.50;99.90;;;;;;4985341;28;20201;-64
2022/12/15 07:49:24;;;;;;;16.08;7.82;;;-1.10;99.90;;;;;;4984942;28;20038;-64
2022/12/15 07:51:49;;;;;;;15.23;9.20;;;-0.50;99.90;;;;;;4984628;28;20053;-64
2022/12/15 07:54:15;;;;;;;16.25;9.05;;;-0.20;99.90;;;;;;4986533;28;20092;-66
2022/12/15 07:56:41;;;;;;;12.05;7.03;;;-2.50;99.90;;;;;;4985760;28;20034;-65
2022/12/15 07:59:08;;;;;;;16.05;8.73;;;-0.80;99.90;;;;;;4983738;28;20082;-67
2022/12/15 08:01:34;;;;;;;16.17;10.05;;;-2.60;99.90;;;;;;4984673;28;20430;-66
2022/12/15 08:04:00;;;;;;;16.23;9.63;;;-0.90;99.90;;;;;;4982814;28;20117;-65
2022/12/15 08:06:26;;;;;;;10.15;6.65;;;-2.00;99.90;;;;;;4977155;28;20042;-66
2022/12/15 08:08:52;;;;;;;15.50;9.30;;;-2.80;99.90;;;;;;4984799;28;20452;-67
2022/12/15 08:11:20;;;;;;;18.67;10.00;;;-0.20;99.90;;;;;;4985784;28;20054;-65
2022/12/15 08:13:45;;;;;;;15.90;9.15;;;-2.60;99.90;;;;;;4985383;28;20054;-64
2022/12/15 08:16:11;;;;;;;13.60;7.20;;;-2.40;99.90;;;;;;4983746;28;20054;-69
2022/12/15 08:18:38;;;;;;;13.57;8.80;;;-2.30;99.90;;;;;;4985077;28;20069;-65
2022/12/15 08:21:08;;;;;;;13.02;7.22;;;-0.90;99.90;;;;;;4985144;28;20548;-64
2022/12/15 08:23:35;;;;;;;18.10;10.18;;;-2.50;99.90;;;;;;4985142;28;20046;-64
2022/12/15 08:26:03;;;;;;;17.75;10.70;;;-0.10;99.90;;;;;;4983456;28;20177;-65
2022/12/15 08:28:31;;;;;;;20.33;10.35;;;-2.60;99.90;;;;;;4985031;28;20053;-66
2022/12/15 08:31:05;;;;;;;15.35;8.93;;;-2.40;99.90;;;;;;4983870;28;20046;-65
2022/12/15 08:33:31;;;;;;;16.67;9.85;;;-2.30;99.90;;;;;;4982662;28;20054;-65
2022/12/15 08:36:02;;;;;;;14.02;8.23;;;-2.50;99.90;;;;;;4985052;28;20524;-64
2022/12/15 08:38:30;;;;;;;21.75;9.73;;;-2.30;99.90;;;;;;4984644;28;20378;-64
2022/12/15 08:40:56;;;;;;;13.63;7.72;;;-2.50;99.90;;;;;;4983938;28;20034;-64
2022/12/15 08:43:22;;;;;;;17.23;9.48;;;-2.40;99.90;;;;;;4985157;28;20045;-66
2022/12/15 08:45:48;;;;;;;14.73;10.05;;;-1.70;99.90;;;;;;4984354;28;20046;-65
2022/12/15 08:48:14;;;;;;;15.55;8.73;;;-2.30;99.90;;;;;;4984236;28;20049;-64
2022/12/15 08:50:44;;;;;;;10.93;6.95;;;-2.10;99.90;;;;;;4982753;28;20551;-66
2022/12/15 08:53:10;;;;;;;14.35;9.05;;;-2.10;99.90;;;;;;4983203;28;20089;-65
2022/12/15 08:55:36;;;;;;;16.05;8.13;;;-2.20;99.90;;;;;;4983878;28;20563;-65
2022/12/15 08:58:02;;;;;;;15.82;10.23;;;-1.50;99.90;;;;;;4966437;28;20046;-65
2022/12/15 09:00:28;;;;;;;16.48;9.48;;;-1.00;99.90;;;;;;4983584;28;20141;-63
2022/12/15 09:02:54;;;;;;;10.80;6.72;;;-1.10;99.90;;;;;;4984676;28;20121;-64
2022/12/15 09:05:19;;;;;;;16.70;10.18;;;-1.30;99.90;;;;;;4978572;28;20113;-65
2022/12/15 09:07:45;;;;;;;17.35;9.70;;;-1.60;99.90;;;;;;4965113;28;20049;-64
2022/12/15 09:10:11;;;;;;;16.58;8.57;;;-1.50;99.90;;;;;;4969799;28;20040;-64
2022/12/15 09:12:36;;;;;;;14.52;9.82;;;-0.10;99.90;;;;;;4982743;28;20061;-64
2022/12/15 09:15:02;;;;;;;12.95;9.10;;;-1.50;99.90;;;;;;4966105;28;20692;-64
2022/12/15 09:17:28;;;;;;;20.00;10.52;;;-1.40;99.90;;;;;;4983505;28;20038;-65
2022/12/15 09:19:53;;;;;;;16.17;10.20;;;-1.20;99.90;;;;;;4983749;28;20046;-64
2022/12/15 09:22:19;;;;;;;17.90;10.25;;;0.00;99.90;;;;;;4984046;28;20050;-65
2022/12/15 09:24:45;;;;;;;16.33;9.65;;;-0.10;99.90;;;;;;4984174;28;20046;-66
2022/12/15 09:27:11;;;;;;;19.58;9.77;;;-0.10;99.90;;;;;;4982398;28;20070;-65
2022/12/15 09:29:37;;;;;;;16.67;9.65;;;-1.00;99.90;;;;;;4983140;28;20046;-64
2022/12/15 09:32:03;;;;;;;13.32;8.10;;;-0.60;99.90;;;;;;4983879;28;20104;-64
2022/12/15 09:34:28;;;;;;;10.02;5.38;;;-0.60;99.90;;;;;;4983920;28;20038;-65
2022/12/15 09:36:55;;;;;;;10.07;7.05;;;-0.20;99.90;;;;;;4977053;28;20064;-64
2022/12/15 09:39:21;;;;;;;13.15;7.38;;;1.00;99.90;;;;;;4977957;28;20046;-66
2022/12/15 09:41:57;;;;;;;12.35;7.50;;;0.50;99.90;;;;;;4963198;28;20046;-66
2022/12/15 09:44:24;;;;;;;10.63;7.28;;;0.30;99.90;;;;;;4963450;28;20043;-65
2022/12/15 09:47:15;;;;;;;13.20;7.88;;;0.50;99.90;;;;;;4963813;28;20054;-65
2022/12/15 09:49:54;;;;;;;11.55;7.97;;;1.30;99.90;;;;;;4961609;28;20042;-64
2022/12/15 09:52:24;;;;;;;11.25;7.45;;;1.00;99.90;;;;;;4963661;28;20210;-66
2022/12/15 09:54:50;;;;;;;10.45;6.93;;;1.60;99.90;;;;;;4963753;28;20566;-64
2022/12/15 09:57:28;;;;;;;12.50;7.32;;;1.50;99.90;;;;;;4962662;28;20057;-66
2022/12/15 09:59:54;;;;;;;13.82;8.00;;;0.80;99.90;;;;;;4961890;28;20046;-66
2022/12/15 10:02:29;;;;;;;9.98;7.00;;;2.10;99.90;;;;;;4963925;28;20058;-64
2022/12/15 10:05:12;;;;;;;13.02;6.30;;;1.20;99.90;;;;;;4969894;28;20050;-66
2022/12/15 10:07:45;;;;;;;10.00;6.15;;;1.20;99.90;;;;;;4965742;28;20043;-65
2022/12/15 10:10:41;;;;;;;11.20;7.40;;;1.10;99.90;;;;;;4961874;28;20338;-64
2022/12/15 10:13:18;;;;;;;11.65;6.72;;;1.40;99.90;;;;;;4963629;28;20359;-65
2022/12/15 10:15:57;;;;;;;9.48;5.40;;;1.60;99.90;;;;;;4962693;28;20148;-66
2022/12/15 10:18:31;;;;;;;11.57;7.30;;;2.10;99.90;;;;;;4963538;28;20049;-66
2022/12/15 10:20:58;;;;;;;11.73;6.53;;;2.20;99.90;;;;;;4963033;28;20391;-65
2022/12/15 10:23:24;;;;;;;15.20;8.05;;;2.00;99.90;;;;;;4962249;28;20039;-64
2022/12/15 10:25:59;;;;;;;13.85;7.32;;;2.30;99.90;;;;;;4963528;28;20053;-66
2022/12/15 10:28:53;;;;;;;12.68;7.40;;;2.40;99.90;;;;;;4963346;28;20053;-66
2022/12/15 10:31:29;;;;;;;10.50;6.35;;;2.50;99.90;;;;;;4963815;28;20486;-66
2022/12/15 10:34:00;;;;;;;15.57;6.07;;;2.60;99.90;;;;;;4963476;28;20085;-64
2022/12/15 10:36:26;;;;;;;11.43;7.35;;;2.70;99.90;;;;;;4963822;28;20422;-67
2022/12/15 10:38:51;;;;;;;15.07;6.95;;;2.60;99.90;;;;;;4962981;28;20047;-65
2022/12/15 10:41:22;;;;;;;13.50;7.20;;;2.40;99.90;;;;;;4963256;28;20385;-66
2022/12/15 10:43:50;;;;;;;13.23;7.30;;;3.00;99.90;;;;;;4961397;28;20109;-65
2022/12/15 10:46:26;;;;;;;8.85;5.13;;;3.00;99.90;;;;;;4962978;28;20121;-66
2022/12/15 10:49:12;;;;;;;11.88;7.00;;;2.90;99.90;;;;;;4961809;28;20394;-67
2022/12/15 10:52:15;;;;;;;14.20;6.75;;;3.00;99.90;;;;;;4965791;28;20061;-63
2022/12/15 10:54:46;;;;;;;11.35;6.75;;;3.00;99.90;;;;;;4965331;28;20066;-68
2022/12/15 10:57:15;;;;;;;12.52;6.47;;;3.00;99.90;;;;;;4961950;28;20133;-66
2022/12/15 10:59:41;;;;;;;11.60;6.75;;;3.10;99.90;;;;;;4961865;28;20129;-64
2022/12/15 11:02:31;;;;;;;10.00;6.60;;;3.10;99.90;;;;;;4962505;28;20197;-66
2022/12/15 11:04:56;;;;;;;10.45;6.57;;;3.00;99.90;;;;;;4965628;28;20090;-65
2022/12/15 11:07:25;;;;;;;10.55;7.22;;;2.90;99.90;;;;;;4978940;28;20329;-64
2022/12/15 11:09:58;;;;;;;10.40;7.35;;;3.20;99.90;;;;;;4983012;28;20050;-67
2022/12/15 11:15:22;;;;;;;11.63;7.78;;;3.30;99.90;;;;;;4981391;28;20097;-65
2022/12/15 11:18:31;;;;;;;13.13;8.07;;;3.50;99.90;;;;;;4981518;28;20082;-67
2022/12/15 11:21:20;;;;;;;14.38;7.80;;;3.50;99.90;;;;;;4986510;28;20140;-69
2022/12/15 11:23:58;;;;;;;11.55;7.10;;;3.60;99.90;;;;;;4981420;28;20065;-66
2022/12/15 11:26:33;;;;;;;9.52;6.63;;;3.10;99.90;;;;;;4980260;28;20045;-66
2022/12/15 11:29:21;;;;;;;11.30;7.00;;;3.00;99.90;;;;;;4980559;28;20054;-65
2022/12/15 11:31:49;;;;;;;8.10;5.70;;;3.00;99.90;;;;;;4988659;28;20058;-65
2022/12/15 11:34:43;;;;;;;10.75;6.72;;;2.90;99.90;;;;;;4980625;28;20466;-67
2022/12/15 11:37:18;;;;;;;12.60;7.47;;;3.00;99.90;;;;;;4981578;28;20054;-66
2022/12/15 11:39:52;;;;;;;12.95;7.28;;;3.40;99.90;;;;;;4980959;28;20481;-66
2022/12/15 11:42:25;;;;;;;10.15;6.60;;;3.70;99.90;;;;;;4981268;28;20038;-70
2022/12/15 11:45:11;;;;;;;15.45;7.20;;;3.40;99.90;;;;;;4982163;28;20058;-66
2022/12/15 11:47:55;;;;;;;9.82;6.05;;;3.30;99.90;;;;;;4981499;28;20054;-66
2022/12/15 11:50:32;;;;;;;13.48;7.40;;;3.20;99.90;;;;;;4981089;28;20493;-67
2022/12/15 11:53:06;;;;;;;10.55;6.32;;;3.30;99.90;;;;;;4982058;28;20432;-63
2022/12/15 11:55:57;;;;;;;12.50;7.13;;;3.00;99.90;;;;;;4980657;28;20105;-63
2022/12/15 11:58:41;;;;;;;10.85;6.43;;;3.10;99.90;;;;;;4982072;28;20057;-63
2022/12/15 12:01:25;;;;;;;13.02;7.10;;;3.20;99.90;;;;;;4982718;28;20046;-63
2022/12/15 12:04:07;;;;;;;10.95;7.60;;;3.10;99.90;;;;;;4982483;28;20050;-63
2022/12/15 12:06:57;;;;;;;15.13;7.43;;;3.10;99.90;;;;;;4975081;28;20047;-63
2022/12/15 12:09:35;;;;;;;7.45;4.75;;;3.20;99.90;;;;;;4965103;28;20051;-63
2022/12/15 12:12:10;;;;;;;14.70;7.22;;;3.00;99.90;;;;;;4964678;28;20066;-63
2022/12/15 12:15:00;;;;;;;9.68;6.90;;;3.30;99.90;;;;;;4964904;28;20057;-63
2022/12/15 12:17:42;;;;;;;13.82;7.63;;;3.00;99.90;;;;;;4965849;28;20620;-63
2022/12/15 12:20:20;;;;;;;13.20;7.40;;;3.00;99.90;;;;;;4964884;28;20058;-64
2022/12/15 12:23:19;;;;;;;11.13;6.95;;;3.00;99.90;;;;;;4965519;28;20117;-63
2022/12/15 12:26:03;;;;;;;12.30;6.90;;;3.00;99.90;;;;;;4966481;28;20094;-64
2022/12/15 12:28:42;;;;;;;11.95;8.00;;;2.90;99.90;;;;;;4965372;28;20070;-66
2022/12/15 12:31:36;;;;;;;12.45;8.00;;;2.80;99.90;;;;;;4965829;28;21039;-66
2022/12/15 12:34:12;;;;;;;13.27;7.93;;;2.90;99.90;;;;;;4965068;28;20382;-65
2022/12/15 12:36:41;;;;;;;13.13;8.70;;;2.90;99.90;;;;;;4965468;28;20035;-65
2022/12/15 12:39:17;;;;;;;12.35;8.25;;;2.80;99.90;;;;;;4965259;28;20147;-65
2022/12/15 12:42:07;;;;;;;11.02;7.07;;;2.90;99.90;;;;;;4964792;28;20382;-65
2022/12/15 12:44:36;;;;;;;13.02;7.80;;;3.00;99.90;;;;;;4964426;28;20042;-65
2022/12/15 12:47:23;;;;;;;14.10;8.10;;;2.90;99.90;;;;;;4964209;28;20039;-64
2022/12/15 12:49:57;;;;;;;11.52;8.25;;;2.80;99.90;;;;;;4963822;28;20039;-65
2022/12/15 12:52:31;;;;;;;12.50;8.02;;;2.80;99.90;;;;;;4964253;28;20043;-65
2022/12/15 12:55:11;;;;;;;12.27;8.23;;;3.10;99.90;;;;;;4965521;28;20900;-66
2022/12/15 12:57:41;;;;;;;12.25;7.85;;;2.80;99.90;;;;;;4965164;28;20057;-65
2022/12/15 13:00:07;;;;;;;12.82;7.57;;;2.70;99.90;;;;;;4964746;28;20047;-64
2022/12/15 13:02:34;;;;;;;14.40;8.55;;;2.80;99.90;;;;;;4965185;28;20072;-66
2022/12/15 13:04:59;;;;;;;12.40;7.50;;;2.60;99.90;;;;;;4972490;28;20156;-66
2022/12/15 13:07:34;;;;;;;10.57;7.28;;;2.60;99.90;;;;;;4967154;28;20043;-66
2022/12/15 13:10:18;;;;;;;14.95;8.23;;;2.60;99.90;;;;;;4963096;28;20434;-66
2022/12/15 13:12:44;;;;;;;12.45;8.10;;;2.60;99.90;;;;;;4963230;28;20047;-65
2022/12/15 13:15:13;;;;;;;12.98;7.85;;;2.70;99.90;;;;;;4962448;28;20053;-65
2022/12/15 13:17:43;;;;;;;13.68;8.13;;;2.50;99.90;;;;;;4964634;28;20054;-65
2022/12/15 13:20:17;;;;;;;16.50;8.25;;;2.60;99.90;;;;;;4964458;28;20058;-65
2022/12/15 13:22:43;;;;;;;15.30;7.93;;;2.60;99.90;;;;;;4964369;28;20078;-65
2022/12/15 13:25:31;;;;;;;12.63;7.30;;;2.50;99.90;;;;;;4963842;28;20340;-67
2022/12/15 13:27:59;;;;;;;14.20;8.25;;;2.40;99.90;;;;;;4963410;28;20047;-66
2022/12/15 13:30:25;;;;;;;15.82;8.32;;;3.00;99.90;;;;;;4963472;28;20831;-66
2022/12/15 13:33:12;;;;;;;11.52;8.38;;;2.40;99.90;;;;;;4982337;28;20046;-66
2022/12/15 13:35:39;;;;;;;14.63;8.68;;;2.40;99.90;;;;;;4984498;28;20563;-65
2022/12/15 13:38:16;;;;;;;14.63;8.75;;;2.60;99.90;;;;;;4984957;28;20050;-64
2022/12/15 13:40:53;;;;;;;12.48;7.95;;;2.40;99.90;;;;;;4983046;28;20042;-65
2022/12/15 13:43:34;;;;;;;16.92;8.73;;;2.50;99.90;;;;;;4983880;28;20105;-65
2022/12/15 13:46:10;;;;;;;11.85;7.90;;;2.60;99.90;;;;;;4983826;28;20161;-65
2022/12/15 13:48:38;;;;;;;11.25;6.18;;;2.80;99.90;;;;;;4984265;28;20050;-65
2022/12/15 13:51:13;;;;;;;14.32;8.73;;;2.40;99.90;;;;;;4981775;28;20612;-65
2022/12/15 13:53:42;;;;;;;;;;;2.40;99.90;;;;;;4981793;28;20054;-65
2022/12/15 13:56:10;;;;;;;11.48;7.30;;;2.20;99.90;;;;;;4983916;28;19921;-65
2022/12/15 13:58:45;;;;;;;13.82;8.75;;;2.80;99.90;;;;;;4982938;28;20050;-65
2022/12/15 14:01:24;;;;;;;14.07;8.98;;;2.20;99.90;;;;;;4982631;28;20050;-65
2022/12/15 14:04:10;;;;;;;14.52;9.02;;;2.10;99.90;;;;;;4981128;28;20035;-65
2022/12/15 14:06:42;;;;;;;13.43;9.02;;;2.10;99.90;;;;;;4971623;28;20406;-65
2022/12/15 14:09:13;;;;;;;11.35;7.45;;;2.60;99.90;;;;;;4964003;28;20047;-65
2022/12/15 14:11:40;;;;;;;15.43;9.95;;;2.00;99.90;;;;;;4963454;28;20047;-70
2022/12/15 14:14:18;;;;;;;15.23;9.05;;;1.90;99.90;;;;;;4962402;28;20035;-69
2022/12/15 14:16:45;;;;;;;16.35;9.60;;;2.20;99.90;;;;;;4961888;28;20050;-67
2022/12/15 14:19:16;;;;;;;15.13;9.80;;;2.10;99.90;;;;;;4963727;28;20051;-68
2022/12/15 14:22:17;;;;;;;14.30;8.80;;;2.00;99.90;;;;;;4968385;28;20082;-69
2022/12/15 14:24:45;;;;;;;12.80;9.25;;;2.00;99.90;;;;;;4976179;28;20138;-69
2022/12/15 14:27:28;;;;;;;12.73;9.27;;;2.00;99.90;;;;;;4968834;28;20117;-68
2022/12/15 14:30:13;;;;;;;14.75;9.57;;;2.00;99.90;;;;;;4968511;28;20042;-68
2022/12/15 14:32:40;;;;;;;13.00;8.75;;;1.80;99.90;;;;;;4968331;28;20050;-68
2022/12/15 14:35:21;;;;;;;14.50;9.77;;;1.70;99.90;;;;;;4969187;28;20034;-68
2022/12/15 14:37:47;;;;;;;15.98;9.57;;;1.70;99.90;;;;;;4967395;28;20454;-68
2022/12/15 14:40:17;;;;;;;14.48;9.98;;;2.00;99.90;;;;;;4969019;28;20074;-68
2022/12/15 14:42:45;;;;;;;15.38;8.82;;;2.10;99.90;;;;;;4969316;28;20046;-67
2022/12/15 14:45:26;;;;;;;13.57;7.03;;;1.60;99.90;;;;;;4966654;28;20061;-68
2022/12/15 14:47:55;;;;;;;12.70;8.13;;;1.60;99.90;;;;;;4966934;28;20106;-68
2022/12/15 14:50:24;;;;;;;14.52;9.75;;;1.70;99.90;;;;;;4969739;28;20089;-68
2022/12/15 14:53:00;;;;;;;16.80;10.80;;;1.80;99.90;;;;;;4968958;28;20089;-68
2022/12/15 14:55:37;;;;;;;17.58;12.00;;;1.60;99.90;;;;;;4969552;28;20126;-68
2022/12/15 14:58:30;;;;;;;15.52;8.95;;;1.30;99.90;;;;;;4968491;28;20035;-68
2022/12/15 15:00:56;;;;;;;17.27;11.70;;;1.40;99.90;;;;;;4968850;28;20049;-68
2022/12/15 15:03:35;;;;;;;17.40;12.30;;;1.40;99.90;;;;;;4968611;28;20039;-70
2022/12/15 15:06:14;;;;;;;19.33;12.30;;;1.50;99.90;;;;;;4969798;28;20039;-68
2022/12/15 15:08:49;;;;;;;18.50;13.68;;;1.50;99.90;;;;;;4969662;28;20085;-67
2022/12/15 15:11:28;;;;;;;16.27;12.02;;;1.60;99.90;;;;;;4969532;28;20480;-68
2022/12/15 15:13:57;;;;;;;21.05;14.25;;;1.40;99.90;;;;;;4967792;28;20058;-68
2022/12/15 15:16:22;;;;;;;17.10;11.55;;;1.60;99.90;;;;;;4968094;28;20680;-68
2022/12/15 15:18:54;;;;;;;21.38;15.45;;;1.20;99.90;;;;;;4969604;28;20061;-68
2022/12/15 15:21:23;;;;;;;18.02;13.68;;;1.40;99.90;;;;;;4968197;28;20047;-68
2022/12/15 15:24:10;;;;;;;19.42;12.93;;;1.00;99.90;;;;;;4967386;28;20061;-68
2022/12/15 15:26:37;;;;;;;21.77;13.25;;;1.00;99.90;;;;;;4969575;28;20053;-67